createdAt,value
2022-12-29T00:01:07.873Z,15.40
2022-12-29T00:03:35.639Z,13.30
2022-12-29T00:06:03.823Z,13.30
2022-12-29T00:08:44.124Z,13.30
2022-12-29T00:11:21.066Z,15.50
2022-12-29T00:14:10.587Z,13.20
2022-12-29T00:16:39.447Z,13.10
2022-12-29T00:19:06.758Z,14.20
2022-12-29T00:21:52.971Z,13.00
2022-12-29T00:24:23.093Z,13.00
2022-12-29T00:27:32.051Z,12.90
2022-12-29T00:30:20.463Z,12.80
2022-12-29T00:33:07.324Z,12.80
2022-12-29T00:35:50.682Z,14.50
2022-12-29T00:38:36.350Z,13.50
2022-12-29T00:41:22.223Z,12.60
2022-12-29T00:44:05.918Z,12.70
2022-12-29T00:46:39.215Z,13.70
2022-12-29T00:49:28.267Z,12.70
2022-12-29T00:51:57.281Z,12.70
2022-12-29T00:54:24.496Z,12.80
2022-12-29T00:56:54.504Z,12.90
2022-12-29T00:59:22.747Z,13.00
2022-12-29T01:01:54.822Z,12.80
2022-12-29T01:04:24.588Z,12.90
2022-12-29T01:06:52.784Z,13.00
2022-12-29T01:09:41.604Z,12.90
2022-12-29T01:12:10.327Z,13.00
2022-12-29T01:14:39.022Z,14.40
2022-12-29T01:17:07.196Z,14.30
2022-12-29T01:19:35.168Z,13.60
2022-12-29T01:22:02.736Z,14.90
2022-12-29T01:24:29.840Z,12.90
2022-12-29T01:26:57.056Z,12.90
2022-12-29T01:29:24.288Z,14.10
2022-12-29T01:31:51.444Z,13.00
2022-12-29T01:34:22.184Z,12.90
2022-12-29T01:36:52.332Z,13.00
2022-12-29T01:39:21.036Z,14.30
2022-12-29T01:41:50.403Z,13.10
2022-12-29T01:44:56.042Z,13.00
2022-12-29T01:47:38.525Z,13.10
2022-12-29T01:50:14.783Z,13.20
2022-12-29T01:53:02.828Z,15.20
2022-12-29T01:55:41.587Z,13.20
2022-12-29T01:58:13.820Z,13.20
2022-12-29T02:00:41.025Z,15.10
2022-12-29T02:03:11.501Z,12.40
2022-12-29T02:05:52.743Z,13.30
2022-12-29T02:08:25.689Z,13.30
2022-12-29T02:10:53.738Z,13.30
2022-12-29T02:13:26.463Z,14.40
2022-12-29T02:16:18.128Z,13.40
2022-12-29T02:19:20.354Z,13.40
2022-12-29T02:22:21.270Z,13.40
2022-12-29T02:25:29.437Z,13.50
2022-12-29T02:29:21.469Z,13.50
2022-12-29T02:32:16.662Z,13.50
2022-12-29T02:35:15.629Z,13.40
2022-12-29T02:38:12.854Z,13.40
2022-12-29T02:40:42.384Z,13.40
2022-12-29T02:43:25.584Z,14.90
2022-12-29T02:45:57.889Z,13.40
2022-12-29T02:48:45.432Z,14.00
2022-12-29T02:51:21.950Z,13.30
2022-12-29T02:54:15.322Z,14.30
2022-12-29T02:56:42.283Z,13.30
2022-12-29T02:59:11.147Z,15.10
2022-12-29T03:02:18.015Z,13.30
2022-12-29T03:05:20.582Z,13.30
2022-12-29T03:08:36.716Z,13.30
2022-12-29T03:11:31.707Z,13.30
2022-12-29T03:14:51.775Z,13.90
2022-12-29T03:17:47.385Z,14.90
2022-12-29T03:20:25.259Z,13.20
2022-12-29T03:23:01.609Z,13.10
2022-12-29T03:25:41.695Z,13.50
2022-12-29T03:28:20.739Z,13.90
2022-12-29T03:30:51.185Z,13.00
2022-12-29T03:33:26.278Z,13.10
2022-12-29T03:36:03.281Z,14.30
2022-12-29T03:39:01.093Z,14.30
2022-12-29T03:41:32.895Z,14.80
2022-12-29T03:44:02.789Z,14.60
2022-12-29T03:46:30.099Z,13.10
2022-12-29T03:48:57.324Z,14.50
2022-12-29T03:51:24.593Z,12.80
2022-12-29T03:53:51.785Z,12.70
2022-12-29T03:56:19.368Z,14.70
2022-12-29T03:58:49.500Z,13.50
2022-12-29T04:01:22.068Z,13.80
2022-12-29T04:03:49.323Z,12.60
2022-12-29T04:06:16.643Z,14.60
2022-12-29T04:08:51.144Z,12.80
2022-12-29T04:11:18.195Z,13.60
2022-12-29T04:13:45.743Z,12.50
2022-12-29T04:16:16.768Z,14.00
2022-12-29T04:18:43.922Z,13.90
2022-12-29T04:21:10.909Z,12.40
2022-12-29T04:23:41.900Z,12.60
2022-12-29T04:26:11.426Z,13.10
2022-12-29T04:28:49.564Z,12.90
2022-12-29T04:31:27.644Z,13.90
2022-12-29T04:33:54.759Z,12.10
2022-12-29T04:36:25.343Z,12.10
2022-12-29T04:38:57.969Z,13.80
2022-12-29T04:41:25.384Z,12.20
2022-12-29T04:43:53.458Z,13.30
2022-12-29T04:46:39.090Z,11.80
2022-12-29T04:49:10.356Z,11.80
2022-12-29T04:51:55.828Z,12.40
2022-12-29T04:54:23.811Z,11.70
2022-12-29T04:56:58.624Z,12.30
2022-12-29T04:59:26.908Z,11.60
2022-12-29T05:01:58.274Z,11.60
2022-12-29T05:04:25.336Z,11.70
2022-12-29T05:06:53.350Z,11.60
2022-12-29T05:09:20.449Z,11.70
2022-12-29T05:11:47.957Z,11.50
2022-12-29T05:14:15.096Z,11.50
2022-12-29T05:16:43.506Z,11.60
2022-12-29T05:19:10.676Z,11.50
2022-12-29T05:21:38.210Z,12.80
2022-12-29T05:24:05.906Z,12.80
2022-12-29T05:26:33.047Z,11.50
2022-12-29T05:29:09.253Z,11.60
2022-12-29T05:31:36.730Z,11.60
2022-12-29T05:34:05.389Z,11.70
2022-12-29T05:36:37.648Z,13.40
2022-12-29T05:39:08.683Z,14.60
2022-12-29T05:41:36.539Z,13.80
2022-12-29T05:44:22.144Z,11.90
2022-12-29T05:47:24.536Z,12.50
2022-12-29T05:50:12.877Z,12.90
2022-12-29T05:52:58.694Z,12.10
2022-12-29T05:55:25.805Z,12.10
2022-12-29T05:57:54.683Z,12.10
2022-12-29T06:00:21.748Z,12.20
2022-12-29T06:02:49.050Z,12.20
2022-12-29T06:05:17.969Z,12.30
2022-12-29T06:07:46.272Z,12.30
2022-12-29T06:10:16.541Z,12.30
2022-12-29T06:13:06.363Z,12.40
2022-12-29T06:15:37.335Z,13.90
2022-12-29T06:18:07.244Z,13.50
2022-12-29T06:20:37.100Z,12.40
2022-12-29T06:23:06.311Z,12.50
2022-12-29T06:25:34.780Z,12.70
2022-12-29T06:28:04.690Z,12.50
2022-12-29T06:30:32.705Z,12.50
2022-12-29T06:33:01.112Z,12.50
2022-12-29T06:35:29.519Z,14.30
2022-12-29T06:37:56.567Z,12.60
2022-12-29T06:40:24.174Z,12.60
2022-12-29T06:43:09.538Z,12.50
2022-12-29T06:45:59.914Z,12.50
2022-12-29T06:48:29.374Z,12.50
2022-12-29T06:50:58.384Z,14.50
2022-12-29T06:53:25.416Z,13.50
2022-12-29T06:55:52.960Z,13.60
2022-12-29T06:58:19.892Z,12.40
2022-12-29T07:00:46.824Z,12.40
2022-12-29T07:03:14.003Z,13.60
2022-12-29T07:05:41.082Z,14.10
2022-12-29T07:08:07.997Z,12.40
2022-12-29T07:10:34.929Z,12.40
2022-12-29T07:13:01.923Z,14.00
2022-12-29T07:15:28.938Z,12.40
2022-12-29T07:17:55.822Z,12.50
2022-12-29T07:20:26.695Z,12.50
2022-12-29T07:22:54.833Z,13.60
2022-12-29T07:25:22.211Z,12.50
2022-12-29T07:27:50.054Z,12.50
2022-12-29T07:30:17.652Z,12.50
2022-12-29T07:32:44.670Z,12.50
2022-12-29T07:35:11.657Z,12.60
2022-12-29T07:37:38.526Z,13.40
2022-12-29T07:40:06.457Z,13.60
2022-12-29T07:42:33.629Z,12.60
2022-12-29T07:45:01.175Z,14.60
2022-12-29T07:47:34.218Z,13.80
2022-12-29T07:50:01.351Z,11.80
2022-12-29T07:52:28.310Z,14.60
2022-12-29T07:54:56.006Z,12.70
2022-12-29T07:57:27.976Z,12.60
2022-12-29T07:59:58.696Z,12.70
2022-12-29T08:02:27.427Z,12.60
2022-12-29T08:04:54.596Z,13.20
2022-12-29T08:07:21.984Z,14.20
2022-12-29T08:09:50.758Z,13.80
2022-12-29T08:12:17.795Z,12.80
2022-12-29T08:14:44.986Z,14.80
2022-12-29T08:17:12.150Z,12.80
2022-12-29T08:19:39.633Z,12.80
2022-12-29T08:22:06.634Z,12.80
2022-12-29T08:24:33.693Z,14.10
2022-12-29T08:27:06.274Z,14.80
2022-12-29T08:29:39.002Z,12.80
2022-12-29T08:32:05.934Z,14.10
2022-12-29T08:34:33.637Z,14.00
2022-12-29T08:37:00.898Z,12.80
2022-12-29T08:39:28.310Z,14.30
2022-12-29T08:41:55.796Z,13.70
2022-12-29T08:44:23.064Z,12.80
2022-12-29T08:46:50.356Z,12.80
2022-12-29T08:49:17.541Z,12.90
2022-12-29T08:51:44.449Z,12.90
2022-12-29T08:54:11.538Z,12.10
2022-12-29T08:56:38.498Z,13.20
2022-12-29T08:59:05.874Z,13.80
2022-12-29T09:01:34.607Z,13.00
2022-12-29T09:04:15.090Z,13.00
2022-12-29T09:06:44.182Z,13.10
2022-12-29T09:09:11.989Z,13.10
2022-12-29T09:11:38.980Z,13.10
2022-12-29T09:14:06.129Z,13.10
2022-12-29T09:16:34.255Z,14.60
2022-12-29T09:19:02.280Z,14.40
2022-12-29T09:21:29.524Z,13.40
2022-12-29T09:23:56.383Z,13.30
2022-12-29T09:26:23.885Z,13.30
2022-12-29T09:28:51.296Z,13.30
2022-12-29T09:31:18.513Z,14.10
2022-12-29T09:33:45.650Z,14.10
2022-12-29T09:36:12.640Z,15.10
2022-12-29T09:38:39.676Z,13.30
2022-12-29T09:41:26.985Z,13.20
2022-12-29T09:44:29.320Z,13.20
2022-12-29T09:46:58.201Z,13.20
2022-12-29T09:49:46.828Z,13.10
2022-12-29T09:52:22.379Z,13.10
2022-12-29T09:55:06.361Z,13.10
2022-12-29T09:57:58.843Z,13.90
2022-12-29T10:00:52.878Z,14.00
2022-12-29T10:03:27.780Z,13.00
2022-12-29T10:06:11.455Z,12.90
2022-12-29T10:08:59.839Z,12.90
2022-12-29T10:11:59.012Z,12.90
2022-12-29T10:14:31.795Z,12.80
2022-12-29T10:17:04.438Z,12.70
2022-12-29T10:20:28.145Z,12.60
2022-12-29T10:23:40.070Z,12.50
2022-12-29T10:26:16.855Z,12.40
2022-12-29T10:28:58.101Z,12.30
2022-12-29T10:31:39.903Z,14.40
2022-12-29T10:34:38.801Z,12.20
2022-12-29T10:37:24.459Z,12.10
2022-12-29T10:39:56.699Z,12.50
2022-12-29T10:42:41.583Z,13.60
2022-12-29T10:45:15.741Z,12.00
2022-12-29T10:48:31.463Z,12.20
2022-12-29T10:51:04.172Z,12.60
2022-12-29T10:53:50.169Z,11.90
2022-12-29T10:56:53.357Z,12.80
2022-12-29T10:59:31.254Z,11.80
2022-12-29T11:02:10.567Z,11.80
2022-12-29T11:05:05.120Z,11.70
2022-12-29T11:07:33.050Z,11.70
2022-12-29T11:10:29.871Z,13.10
2022-12-29T11:13:11.888Z,11.60
2022-12-29T11:15:50.566Z,11.60
2022-12-29T11:18:27.428Z,13.30
2022-12-29T11:21:01.398Z,13.10
2022-12-29T11:23:33.611Z,11.70
2022-12-29T11:26:21.836Z,12.40
2022-12-29T11:29:09.014Z,11.80
2022-12-29T11:31:59.112Z,11.90
2022-12-29T11:34:36.908Z,12.00
2022-12-29T11:37:12.343Z,12.00
2022-12-29T11:40:05.228Z,13.00
2022-12-29T11:42:49.770Z,12.10
2022-12-29T11:45:24.378Z,12.50
2022-12-29T11:48:16.890Z,12.20
2022-12-29T11:50:56.437Z,13.20
2022-12-29T11:53:39.066Z,12.20
2022-12-29T11:56:15.829Z,12.20
2022-12-29T11:58:44.041Z,12.20
2022-12-29T12:01:35.642Z,12.30
2022-12-29T12:04:15.238Z,12.30
2022-12-29T12:07:04.198Z,12.30
2022-12-29T12:09:41.258Z,12.40
2022-12-29T12:12:22.607Z,12.50
2022-12-29T12:15:00.551Z,13.90
2022-12-29T12:18:19.554Z,14.60
2022-12-29T12:20:55.714Z,12.60
2022-12-29T12:23:34.301Z,13.60
2022-12-29T12:26:23.031Z,12.80
2022-12-29T12:28:59.760Z,12.80
2022-12-29T12:32:12.384Z,15.00
2022-12-29T12:34:46.378Z,12.90
2022-12-29T12:37:43.352Z,13.00
2022-12-29T12:40:32.027Z,13.00
2022-12-29T12:43:46.564Z,13.10
2022-12-29T12:46:46.494Z,13.10
2022-12-29T12:49:35.108Z,13.10
2022-12-29T12:53:13.634Z,13.10
2022-12-29T12:56:14.766Z,13.20
2022-12-29T12:58:50.399Z,13.20
2022-12-29T13:01:35.393Z,13.20
2022-12-29T13:04:38.366Z,13.20
2022-12-29T13:07:56.883Z,13.50
2022-12-29T13:10:39.424Z,13.20
2022-12-29T13:13:40.107Z,15.20
2022-12-29T13:16:26.364Z,13.20
2022-12-29T13:19:39.247Z,13.20
2022-12-29T13:22:36.372Z,13.10
2022-12-29T13:25:35.873Z,13.10
2022-12-29T13:28:30.454Z,13.00
2022-12-29T13:31:33.928Z,12.90
2022-12-29T13:34:21.889Z,12.60
2022-12-29T13:37:05.148Z,12.50
2022-12-29T13:39:53.894Z,12.30
2022-12-29T13:42:23.665Z,13.00
2022-12-29T13:45:04.475Z,12.80
2022-12-29T13:47:58.993Z,12.00
2022-12-29T13:50:29.240Z,11.90
2022-12-29T13:53:34.571Z,11.80
2022-12-29T13:57:07.889Z,11.70
2022-12-29T13:59:58.996Z,11.60
2022-12-29T14:02:43.856Z,11.50
2022-12-29T14:05:24.081Z,11.50
2022-12-29T14:08:05.393Z,11.50
2022-12-29T14:10:48.636Z,11.40
2022-12-29T14:13:23.300Z,13.60
2022-12-29T14:16:00.941Z,11.40
2022-12-29T14:18:32.418Z,11.40
2022-12-29T14:21:16.991Z,12.20
2022-12-29T14:23:46.419Z,11.40
2022-12-29T14:26:19.089Z,11.40
2022-12-29T14:28:49.670Z,12.20
2022-12-29T14:31:19.897Z,11.40
2022-12-29T14:34:08.454Z,11.40
2022-12-29T14:37:03.146Z,11.40
2022-12-29T14:39:42.437Z,11.40
2022-12-29T14:42:25.282Z,11.40
2022-12-29T14:45:01.514Z,13.00
2022-12-29T14:47:32.928Z,11.40
2022-12-29T14:50:28.048Z,12.20
2022-12-29T14:53:04.228Z,11.40
2022-12-29T14:55:54.801Z,12.00
2022-12-29T14:58:32.028Z,11.30
2022-12-29T15:01:01.340Z,13.50
2022-12-29T15:03:44.790Z,12.80
2022-12-29T15:06:19.842Z,12.00
2022-12-29T15:09:23.916Z,11.30
2022-12-29T15:12:02.523Z,11.20
2022-12-29T15:14:49.777Z,11.30
2022-12-29T15:17:28.178Z,11.30
2022-12-29T15:20:19.317Z,12.50
2022-12-29T15:22:59.562Z,11.20
2022-12-29T15:25:27.406Z,11.20
2022-12-29T15:28:01.726Z,12.40
2022-12-29T15:30:29.496Z,11.20
2022-12-29T15:32:56.832Z,12.70
2022-12-29T15:35:32.277Z,11.10
2022-12-29T15:38:00.550Z,11.10
2022-12-29T15:40:33.897Z,13.40
2022-12-29T15:43:39.529Z,11.00
2022-12-29T15:46:12.976Z,11.00
2022-12-29T15:48:41.582Z,11.80
2022-12-29T15:51:36.425Z,13.40
2022-12-29T15:54:06.092Z,11.20
2022-12-29T15:56:35.071Z,10.80
2022-12-29T15:59:02.582Z,10.80
2022-12-29T16:01:36.551Z,11.00
2022-12-29T16:04:09.997Z,10.70
2022-12-29T16:06:44.982Z,10.60
2022-12-29T16:09:29.452Z,12.30
2022-12-29T16:12:16.828Z,10.50
2022-12-29T16:15:08.535Z,12.60
2022-12-29T16:17:51.876Z,10.40
2022-12-29T16:20:25.814Z,10.40
2022-12-29T16:23:04.179Z,10.60
2022-12-29T16:25:36.979Z,10.30
2022-12-29T16:28:24.411Z,10.20
2022-12-29T16:31:08.077Z,10.20
2022-12-29T16:33:48.330Z,10.10
2022-12-29T16:36:43.391Z,10.60
2022-12-29T16:39:30.031Z,10.10
2022-12-29T16:41:58.335Z,11.50
2022-12-29T16:44:30.812Z,10.00
2022-12-29T16:47:19.110Z,10.00
2022-12-29T16:49:54.275Z,10.10
2022-12-29T16:52:35.542Z,11.40
2022-12-29T16:55:03.305Z,10.00
2022-12-29T16:57:37.793Z,11.70
2022-12-29T17:00:09.196Z,10.10
2022-12-29T17:02:46.205Z,10.10
2022-12-29T17:05:18.932Z,10.00
2022-12-29T17:07:47.695Z,10.00
2022-12-29T17:10:15.743Z,11.60
2022-12-29T17:12:46.796Z,11.40
2022-12-29T17:15:27.386Z,11.50
2022-12-29T17:17:56.851Z,10.10
2022-12-29T17:20:27.920Z,11.60
2022-12-29T17:22:55.913Z,9.80
2022-12-29T17:25:36.790Z,9.70
2022-12-29T17:28:21.733Z,10.80
2022-12-29T17:30:50.239Z,10.90
2022-12-29T17:33:21.082Z,12.10
2022-12-29T17:35:55.005Z,10.50
2022-12-29T17:38:33.250Z,11.10
2022-12-29T17:41:00.677Z,9.50
2022-12-29T17:43:33.000Z,9.50
2022-12-29T17:46:07.290Z,9.50
2022-12-29T17:48:34.743Z,11.10
2022-12-29T17:51:01.867Z,9.40
2022-12-29T17:53:32.028Z,9.30
2022-12-29T17:55:59.059Z,9.30
2022-12-29T17:58:30.589Z,9.30
2022-12-29T18:01:03.515Z,9.90
2022-12-29T18:03:38.643Z,11.00
2022-12-29T18:06:08.693Z,9.20
2022-12-29T18:08:40.963Z,9.20
2022-12-29T18:11:27.003Z,9.10
2022-12-29T18:13:55.927Z,8.40
2022-12-29T18:16:23.896Z,10.30
2022-12-29T18:18:51.292Z,9.10
2022-12-29T18:21:24.568Z,9.10
2022-12-29T18:23:52.636Z,9.80
2022-12-29T18:26:31.467Z,11.30
2022-12-29T18:28:59.643Z,8.80
2022-12-29T18:31:31.282Z,9.10
2022-12-29T18:34:02.260Z,9.00
2022-12-29T18:36:29.424Z,9.10
2022-12-29T18:38:57.748Z,11.40
2022-12-29T18:41:29.868Z,9.00
2022-12-29T18:43:59.009Z,9.00
2022-12-29T18:46:27.064Z,10.80
2022-12-29T18:48:54.554Z,9.00
2022-12-29T18:51:26.233Z,9.00
2022-12-29T18:53:55.815Z,10.20
2022-12-29T18:56:24.880Z,9.00
2022-12-29T18:58:53.885Z,10.50
2022-12-29T19:01:27.787Z,9.30
2022-12-29T19:03:55.407Z,8.90
2022-12-29T19:06:22.856Z,8.90
2022-12-29T19:08:51.173Z,10.80
2022-12-29T19:11:18.524Z,8.90
2022-12-29T19:13:45.645Z,8.90
2022-12-29T19:16:21.061Z,11.30
2022-12-29T19:19:05.773Z,8.90
2022-12-29T19:21:36.447Z,8.90
2022-12-29T19:24:03.955Z,8.90
2022-12-29T19:26:38.201Z,8.90
2022-12-29T19:29:08.819Z,8.90
2022-12-29T19:31:39.047Z,9.90
2022-12-29T19:34:06.395Z,9.00
2022-12-29T19:36:33.857Z,11.20
2022-12-29T19:39:02.791Z,10.60
2022-12-29T19:41:30.137Z,8.90
2022-12-29T19:43:57.141Z,11.50
2022-12-29T19:46:25.760Z,10.30
2022-12-29T19:49:06.481Z,9.60
2022-12-29T19:51:33.771Z,11.50
2022-12-29T19:54:00.870Z,9.00
2022-12-29T19:56:28.063Z,11.10
2022-12-29T19:58:57.745Z,10.60
2022-12-29T20:01:26.034Z,9.00
2022-12-29T20:03:53.266Z,10.40
2022-12-29T20:06:20.884Z,10.70
2022-12-29T20:08:49.753Z,9.00
2022-12-29T20:11:18.802Z,8.90
2022-12-29T20:13:47.513Z,9.00
2022-12-29T20:16:20.357Z,11.20
2022-12-29T20:18:49.464Z,9.00
2022-12-29T20:21:24.233Z,10.00
2022-12-29T20:23:53.621Z,9.00
2022-12-29T20:26:25.980Z,10.30
2022-12-29T20:28:57.802Z,9.40
2022-12-29T20:31:33.313Z,10.20
2022-12-29T20:34:00.743Z,9.00
2022-12-29T20:36:32.961Z,10.60
2022-12-29T20:39:05.289Z,11.10
2022-12-29T20:41:33.081Z,9.00
2022-12-29T20:44:00.901Z,9.00
2022-12-29T20:46:35.351Z,9.00
2022-12-29T20:49:08.773Z,9.00
2022-12-29T20:52:04.487Z,8.90
2022-12-29T20:54:25.042Z,8.90
2022-12-29T20:56:53.016Z,8.90
2022-12-29T20:59:28.624Z,11.60
2022-12-29T21:01:58.589Z,8.80
2022-12-29T21:04:26.732Z,8.90
2022-12-29T21:06:54.085Z,8.90
2022-12-29T21:09:21.676Z,8.90
2022-12-29T21:11:49.504Z,8.80
2022-12-29T21:14:16.611Z,8.80
2022-12-29T21:16:43.677Z,8.80
2022-12-29T21:19:10.847Z,8.80
2022-12-29T21:21:37.879Z,8.80
2022-12-29T21:24:07.658Z,8.80
2022-12-29T21:26:34.990Z,8.70
2022-12-29T21:29:03.935Z,9.80
2022-12-29T21:31:33.907Z,8.70
2022-12-29T21:34:02.968Z,8.70
2022-12-29T21:36:30.834Z,8.70
2022-12-29T21:38:58.751Z,8.70
2022-12-29T21:41:26.108Z,8.70
2022-12-29T21:44:11.909Z,9.00
2022-12-29T21:46:43.926Z,8.70
2022-12-29T21:49:11.318Z,8.70
2022-12-29T21:51:50.071Z,10.00
2022-12-29T21:54:39.313Z,10.20
2022-12-29T21:57:06.987Z,8.70
2022-12-29T21:59:52.450Z,8.70
2022-12-29T22:02:45.049Z,8.60
2022-12-29T22:05:33.672Z,8.60
2022-12-29T22:08:20.951Z,8.60
2022-12-29T22:11:08.511Z,9.90
2022-12-29T22:13:39.359Z,8.60
2022-12-29T22:16:10.856Z,10.00
2022-12-29T22:18:38.985Z,8.60
2022-12-29T22:21:10.960Z,8.50
2022-12-29T22:23:38.732Z,8.50
2022-12-29T22:26:09.612Z,10.30
2022-12-29T22:28:38.967Z,8.50
2022-12-29T22:31:08.285Z,10.40
2022-12-29T22:33:35.286Z,8.50
2022-12-29T22:36:02.196Z,8.50
2022-12-29T22:38:29.229Z,8.50
2022-12-29T22:41:00.519Z,8.50
2022-12-29T22:43:29.874Z,8.80
2022-12-29T22:46:04.212Z,10.40
2022-12-29T22:48:34.003Z,10.20
2022-12-29T22:51:02.044Z,8.50
2022-12-29T22:53:29.399Z,8.50
2022-12-29T22:56:08.167Z,8.50
2022-12-29T22:58:35.455Z,8.50
2022-12-29T23:01:03.042Z,8.40
2022-12-29T23:03:30.132Z,10.00
2022-12-29T23:06:02.600Z,8.40
2022-12-29T23:08:34.709Z,8.40
2022-12-29T23:11:02.623Z,8.40
2022-12-29T23:13:29.824Z,8.30
2022-12-29T23:15:57.017Z,9.90
2022-12-29T23:18:24.113Z,8.30
2022-12-29T23:20:51.599Z,8.30
2022-12-29T23:23:46.291Z,8.30
2022-12-29T23:26:16.356Z,10.40
2022-12-29T23:28:43.310Z,8.30
2022-12-29T23:31:10.660Z,10.50
2022-12-29T23:33:37.927Z,8.20
2022-12-29T23:36:05.710Z,8.20
2022-12-29T23:38:32.679Z,8.20
2022-12-29T23:40:59.707Z,8.20
2022-12-29T23:43:27.092Z,9.50
2022-12-29T23:45:53.919Z,9.80
2022-12-29T23:48:20.990Z,8.10
2022-12-29T23:50:48.134Z,9.70
2022-12-29T23:53:15.182Z,8.10
2022-12-29T23:55:44.178Z,10.20
2022-12-29T23:58:11.595Z,8.10
